Terminal Aerodrome Forecast
Issued by NWS

Home | Current Version | Previous Version | Text Only | Print | Product List | Glossary On
Versions: 1 2 3 4 5 6 7 8 9 10 11 12 13 14 15 16 17 18
000
FTUS46 KMTR 230800 AAA
TAFSNS
TAF AMD
KSNS 230824Z 2308/2406 00000KT P6SM OVC011
     FM231100 VRB03KT P6SM OVC007
     FM231800 29010KT P6SM SKC
     FM232000 29014KT P6SM SKC
     FM240200 29010KT P6SM OVC007
     FM240500 30004KT P6SM OVC007=

USA.gov is the U.S. government's official web portal to all federal, state and local government web resources and services.